MSR873 HECA-HDAM
Flight info
| Callsign | MSR873 |
|---|---|
| Flight time | N/A |
| Altitude | 35000 |
| Route | SEMRU DCT NABED T55 DEDLI DCT MUVOL DCT RASKA UG650 ULONI UV790 SB DCT MANDA MANDA1R |
| Aircraft | B738/M-SDE2E3FGHIRWXY/LB1 |
Departure
| Time | N/A |
|---|---|
| Airport | Cairo International Airport (HECA) |
Arrival
| Time | 2026-04-20 22:32 |
|---|---|
| Airport | Djibouti-Ambouli Airport (HDAM) |
| Time | Latitude | Longitude | Altitude | Speed | Heading |
|---|---|---|---|---|---|
| 2026-04-20 20:00 | 27.10129 | 32.55541 | 34937 ft | 529 kts | 138° |
| 2026-04-20 20:00 | 27.05430 | 32.61895 | 34926 ft | 529 kts | 138° |
| 2026-04-20 20:01 | 27.00725 | 32.68249 | 34925 ft | 529 kts | 139° |
| 2026-04-20 20:01 | 26.96025 | 32.74596 | 34924 ft | 528 kts | 139° |
| 2026-04-20 20:02 | 26.91323 | 32.80940 | 34932 ft | 528 kts | 139° |
| 2026-04-20 20:02 | 26.86649 | 32.87239 | 34928 ft | 528 kts | 139° |
| 2026-04-20 20:03 | 26.81932 | 32.93585 | 34922 ft | 528 kts | 139° |
| 2026-04-20 20:03 | 26.77234 | 32.99895 | 34923 ft | 527 kts | 139° |
| 2026-04-20 20:04 | 26.72565 | 33.06160 | 34930 ft | 527 kts | 139° |
| 2026-04-20 20:04 | 26.67864 | 33.12457 | 34939 ft | 527 kts | 139° |
| 2026-04-20 20:05 | 26.63155 | 33.18756 | 34933 ft | 526 kts | 139° |
| 2026-04-20 20:05 | 26.58484 | 33.24997 | 34925 ft | 526 kts | 139° |
| 2026-04-20 20:06 | 26.53769 | 33.31287 | 34937 ft | 526 kts | 139° |
| 2026-04-20 20:06 | 26.49073 | 33.37545 | 34936 ft | 526 kts | 139° |
| 2026-04-20 20:07 | 26.44394 | 33.43770 | 34942 ft | 526 kts | 139° |
| 2026-04-20 20:07 | 26.39683 | 33.50021 | 34935 ft | 526 kts | 139° |
| 2026-04-20 20:08 | 26.34963 | 33.56273 | 34933 ft | 526 kts | 139° |
| 2026-04-20 20:08 | 26.30263 | 33.62496 | 34932 ft | 527 kts | 139° |
| 2026-04-20 20:09 | 26.25529 | 33.68756 | 34929 ft | 528 kts | 139° |
| 2026-04-20 20:09 | 26.20785 | 33.75019 | 34932 ft | 529 kts | 139° |
| 2026-04-20 20:10 | 26.16036 | 33.81281 | 34929 ft | 530 kts | 139° |
| 2026-04-20 20:10 | 26.11302 | 33.87516 | 34930 ft | 530 kts | 139° |
| 2026-04-20 20:11 | 26.06534 | 33.93788 | 34919 ft | 530 kts | 139° |
| 2026-04-20 20:11 | 26.01803 | 34.00001 | 34925 ft | 529 kts | 139° |
| 2026-04-20 20:12 | 25.97046 | 34.06242 | 34927 ft | 528 kts | 140° |
| 2026-04-20 20:12 | 25.92317 | 34.12438 | 34921 ft | 526 kts | 140° |
| 2026-04-20 20:13 | 25.85209 | 34.21720 | 34923 ft | 525 kts | 140° |
| 2026-04-20 20:13 | 25.80721 | 34.27567 | 34928 ft | 524 kts | 140° |
| 2026-04-20 20:14 | 25.75974 | 34.33749 | 34928 ft | 525 kts | 140° |
| 2026-04-20 20:14 | 25.71256 | 34.39885 | 34927 ft | 525 kts | 140° |
| 2026-04-20 20:15 | 25.66504 | 34.46058 | 34947 ft | 526 kts | 140° |
| 2026-04-20 20:15 | 25.61811 | 34.52147 | 34941 ft | 527 kts | 140° |
| 2026-04-20 20:16 | 25.56988 | 34.58265 | 34931 ft | 523 kts | 143° |
| 2026-04-20 20:16 | 25.51855 | 34.63946 | 34936 ft | 520 kts | 146° |
| 2026-04-20 20:17 | 25.46751 | 34.69399 | 34935 ft | 521 kts | 146° |
| 2026-04-20 20:17 | 25.41553 | 34.75014 | 34930 ft | 522 kts | 146° |
| 2026-04-20 20:18 | 25.36397 | 34.80641 | 34927 ft | 523 kts | 145° |
| 2026-04-20 20:18 | 25.31218 | 34.86299 | 34932 ft | 523 kts | 145° |
| 2026-04-20 20:19 | 25.26017 | 34.91968 | 34932 ft | 523 kts | 145° |
| 2026-04-20 20:19 | 25.20849 | 34.97590 | 34928 ft | 523 kts | 145° |
| 2026-04-20 20:20 | 25.15656 | 35.03232 | 34931 ft | 523 kts | 145° |
| 2026-04-20 20:20 | 25.10471 | 35.08860 | 34929 ft | 522 kts | 145° |
| 2026-04-20 20:21 | 25.05287 | 35.14478 | 34923 ft | 522 kts | 145° |
| 2026-04-20 20:21 | 25.00111 | 35.20088 | 34929 ft | 521 kts | 145° |
| 2026-04-20 20:22 | 24.94970 | 35.25661 | 34927 ft | 520 kts | 145° |
| 2026-04-20 20:22 | 24.89802 | 35.31256 | 34925 ft | 520 kts | 145° |
| 2026-04-20 20:23 | 24.84646 | 35.36831 | 34924 ft | 519 kts | 145° |
| 2026-04-20 20:23 | 24.79487 | 35.42402 | 34920 ft | 518 kts | 145° |
| 2026-04-20 20:24 | 24.74362 | 35.47930 | 34921 ft | 518 kts | 145° |
| 2026-04-20 20:24 | 24.69218 | 35.53471 | 34916 ft | 517 kts | 145° |
| 2026-04-20 20:25 | 24.64074 | 35.59004 | 34915 ft | 517 kts | 145° |
| 2026-04-20 20:25 | 24.58923 | 35.64539 | 34918 ft | 516 kts | 145° |
| 2026-04-20 20:26 | 24.53814 | 35.70021 | 34919 ft | 516 kts | 145° |
| 2026-04-20 20:26 | 24.48672 | 35.75532 | 34914 ft | 517 kts | 145° |
| 2026-04-20 20:27 | 24.43519 | 35.81049 | 34914 ft | 517 kts | 145° |
| 2026-04-20 20:27 | 24.38359 | 35.86567 | 34914 ft | 518 kts | 145° |
| 2026-04-20 20:28 | 24.33225 | 35.92050 | 34911 ft | 518 kts | 145° |
| 2026-04-20 20:28 | 24.28036 | 35.97586 | 34913 ft | 519 kts | 145° |
| 2026-04-20 20:29 | 24.22843 | 36.03119 | 34905 ft | 520 kts | 145° |
| 2026-04-20 20:29 | 24.17676 | 36.08617 | 34907 ft | 521 kts | 145° |
| 2026-04-20 20:30 | 24.12456 | 36.14166 | 34902 ft | 522 kts | 145° |
| 2026-04-20 20:30 | 24.07235 | 36.19709 | 34899 ft | 522 kts | 145° |
| 2026-04-20 20:31 | 24.02044 | 36.25216 | 34903 ft | 523 kts | 145° |
| 2026-04-20 20:31 | 23.96815 | 36.30754 | 34892 ft | 523 kts | 145° |
| 2026-04-20 20:32 | 23.91582 | 36.36291 | 34893 ft | 522 kts | 145° |
| 2026-04-20 20:32 | 23.86359 | 36.41810 | 34892 ft | 521 kts | 145° |
| 2026-04-20 20:33 | 23.81171 | 36.47287 | 34889 ft | 521 kts | 145° |
| 2026-04-20 20:33 | 23.75952 | 36.52789 | 34889 ft | 520 kts | 145° |
| 2026-04-20 20:34 | 23.70779 | 36.58235 | 34887 ft | 519 kts | 145° |
| 2026-04-20 20:34 | 23.65582 | 36.63701 | 34884 ft | 518 kts | 145° |
| 2026-04-20 20:35 | 23.60389 | 36.69156 | 34882 ft | 517 kts | 145° |
| 2026-04-20 20:35 | 23.55202 | 36.74599 | 34880 ft | 517 kts | 145° |
| 2026-04-20 20:36 | 23.50019 | 36.80031 | 34881 ft | 516 kts | 145° |
| 2026-04-20 20:36 | 23.44873 | 36.85418 | 34882 ft | 516 kts | 145° |
| 2026-04-20 20:37 | 23.39683 | 36.90844 | 34882 ft | 516 kts | 145° |
| 2026-04-20 20:37 | 23.34531 | 36.96225 | 34877 ft | 516 kts | 145° |
| 2026-04-20 20:38 | 23.29353 | 37.01627 | 34877 ft | 516 kts | 145° |
| 2026-04-20 20:38 | 23.24164 | 37.07035 | 34879 ft | 516 kts | 145° |
| 2026-04-20 20:39 | 23.18975 | 37.12436 | 34874 ft | 516 kts | 145° |
| 2026-04-20 20:39 | 23.13786 | 37.17832 | 34873 ft | 516 kts | 145° |
| 2026-04-20 20:40 | 23.08627 | 37.23190 | 34869 ft | 516 kts | 145° |
| 2026-04-20 20:40 | 23.03434 | 37.28578 | 34870 ft | 516 kts | 145° |
| 2026-04-20 20:41 | 22.98245 | 37.33955 | 34865 ft | 516 kts | 145° |
| 2026-04-20 20:41 | 22.93033 | 37.39350 | 34863 ft | 515 kts | 145° |
| 2026-04-20 20:42 | 22.87873 | 37.44687 | 34862 ft | 515 kts | 145° |
| 2026-04-20 20:42 | 22.82690 | 37.50040 | 34862 ft | 514 kts | 145° |
| 2026-04-20 20:43 | 22.78376 | 37.54493 | 34862 ft | 514 kts | 145° |
| 2026-04-20 20:43 | 22.72344 | 37.60713 | 34858 ft | 514 kts | 144° |
| 2026-04-20 20:44 | 22.68406 | 37.65696 | 34866 ft | 525 kts | 133° |
| 2026-04-20 20:44 | 22.64243 | 37.72158 | 34849 ft | 526 kts | 131° |
| 2026-04-20 20:45 | 22.60074 | 37.78685 | 34854 ft | 525 kts | 132° |
| 2026-04-20 20:45 | 22.55869 | 37.85138 | 34857 ft | 524 kts | 132° |
| 2026-04-20 20:46 | 22.51632 | 37.91572 | 34855 ft | 523 kts | 132° |
| 2026-04-20 20:46 | 22.47425 | 37.97952 | 34852 ft | 522 kts | 132° |
| 2026-04-20 20:47 | 22.43210 | 38.04347 | 34850 ft | 521 kts | 132° |
| 2026-04-20 20:47 | 22.38996 | 38.10736 | 34852 ft | 521 kts | 132° |
| 2026-04-20 20:48 | 22.34810 | 38.17074 | 34849 ft | 520 kts | 132° |
| 2026-04-20 20:48 | 22.30163 | 38.22901 | 34845 ft | 499 kts | 152° |
| 2026-04-20 20:49 | 22.27303 | 38.24922 | 34857 ft | 484 kts | 162° |
| 2026-04-20 20:49 | 22.24257 | 38.26344 | 34845 ft | 469 kts | 174° |
| 2026-04-20 20:49 | 22.17981 | 38.27940 | 34849 ft | 463 kts | 177° |
| 2026-04-20 20:50 | 22.11721 | 38.29498 | 34849 ft | 466 kts | 177° |
| 2026-04-20 20:50 | 22.05362 | 38.31128 | 34845 ft | 469 kts | 176° |
| 2026-04-20 20:51 | 21.99026 | 38.32774 | 34844 ft | 472 kts | 176° |
| 2026-04-20 20:51 | 21.92617 | 38.34444 | 34842 ft | 474 kts | 176° |
| 2026-04-20 20:52 | 21.86194 | 38.36114 | 34841 ft | 475 kts | 176° |
| 2026-04-20 20:52 | 21.79758 | 38.37786 | 34842 ft | 475 kts | 176° |
| 2026-04-20 20:53 | 21.73357 | 38.39446 | 34838 ft | 475 kts | 176° |
| 2026-04-20 20:53 | 21.66923 | 38.41112 | 34833 ft | 474 kts | 176° |
| 2026-04-20 20:54 | 21.60509 | 38.42772 | 34834 ft | 472 kts | 175° |
| 2026-04-20 20:54 | 21.54156 | 38.44414 | 34830 ft | 471 kts | 175° |
| 2026-04-20 20:55 | 21.47786 | 38.46059 | 34829 ft | 470 kts | 175° |
| 2026-04-20 20:55 | 21.41425 | 38.47700 | 34831 ft | 469 kts | 175° |
| 2026-04-20 20:56 | 21.35104 | 38.49328 | 34833 ft | 469 kts | 175° |
| 2026-04-20 20:56 | 21.28750 | 38.50963 | 34835 ft | 469 kts | 175° |
| 2026-04-20 20:57 | 21.22388 | 38.52599 | 34835 ft | 470 kts | 175° |
| 2026-04-20 20:57 | 21.16003 | 38.54240 | 34837 ft | 471 kts | 175° |
| 2026-04-20 20:58 | 21.09643 | 38.55873 | 34834 ft | 473 kts | 175° |
| 2026-04-20 20:58 | 21.03229 | 38.57519 | 34838 ft | 474 kts | 175° |
| 2026-04-20 20:59 | 20.96797 | 38.59168 | 34836 ft | 475 kts | 175° |
| 2026-04-20 20:59 | 20.90353 | 38.60819 | 34833 ft | 476 kts | 175° |
| 2026-04-20 21:00 | 20.83938 | 38.62461 | 34831 ft | 477 kts | 175° |
| 2026-04-20 21:00 | 20.77467 | 38.64116 | 34827 ft | 477 kts | 175° |
| 2026-04-20 21:01 | 20.70998 | 38.65769 | 34830 ft | 477 kts | 175° |
| 2026-04-20 21:01 | 20.64575 | 38.67408 | 34837 ft | 477 kts | 175° |
| 2026-04-20 21:02 | 20.58107 | 38.69058 | 34825 ft | 477 kts | 175° |
| 2026-04-20 21:02 | 20.51638 | 38.70707 | 34825 ft | 477 kts | 175° |
| 2026-04-20 21:03 | 20.45211 | 38.72343 | 34827 ft | 477 kts | 175° |
| 2026-04-20 21:03 | 20.38746 | 38.73987 | 34828 ft | 477 kts | 175° |
| 2026-04-20 21:04 | 20.32320 | 38.75620 | 34827 ft | 476 kts | 175° |
| 2026-04-20 21:04 | 20.25866 | 38.77259 | 34826 ft | 476 kts | 175° |
| 2026-04-20 21:05 | 20.19420 | 38.78895 | 34823 ft | 476 kts | 175° |
| 2026-04-20 21:05 | 20.12964 | 38.80531 | 34820 ft | 476 kts | 175° |
| 2026-04-20 21:06 | 20.06549 | 38.82156 | 34821 ft | 476 kts | 175° |
| 2026-04-20 21:06 | 20.00111 | 38.83785 | 34820 ft | 476 kts | 174° |
| 2026-04-20 21:07 | 19.93665 | 38.85415 | 34834 ft | 476 kts | 174° |
| 2026-04-20 21:07 | 19.87212 | 38.87045 | 34823 ft | 476 kts | 174° |
| 2026-04-20 21:08 | 19.80803 | 38.88662 | 34815 ft | 476 kts | 174° |
| 2026-04-20 21:08 | 19.74346 | 38.90291 | 34811 ft | 476 kts | 174° |
| 2026-04-20 21:09 | 19.67884 | 38.91920 | 34814 ft | 477 kts | 174° |
| 2026-04-20 21:09 | 19.61420 | 38.93548 | 34820 ft | 477 kts | 174° |
| 2026-04-20 21:10 | 19.55006 | 38.95161 | 34818 ft | 477 kts | 174° |
| 2026-04-20 21:10 | 19.48546 | 38.96785 | 34817 ft | 477 kts | 174° |
| 2026-04-20 21:11 | 19.42078 | 38.98410 | 34812 ft | 477 kts | 174° |
| 2026-04-20 21:11 | 19.35643 | 39.00025 | 34810 ft | 477 kts | 174° |
| 2026-04-20 21:12 | 19.29172 | 39.01648 | 34808 ft | 477 kts | 174° |
| 2026-04-20 21:12 | 19.22709 | 39.03268 | 34815 ft | 477 kts | 174° |
| 2026-04-20 21:13 | 19.16281 | 39.04878 | 34810 ft | 477 kts | 174° |
| 2026-04-20 21:13 | 19.09796 | 39.05774 | 34796 ft | 461 kts | 189° |
| 2026-04-20 21:14 | 19.03417 | 39.05388 | 34806 ft | 459 kts | 191° |
| 2026-04-20 21:14 | 18.97038 | 39.04962 | 34806 ft | 459 kts | 191° |
| 2026-04-20 21:15 | 18.90680 | 39.04580 | 34810 ft | 460 kts | 190° |
| 2026-04-20 21:15 | 18.84266 | 39.04222 | 34808 ft | 460 kts | 190° |
| 2026-04-20 21:16 | 18.77906 | 39.03872 | 34807 ft | 460 kts | 190° |
| 2026-04-20 21:16 | 18.71506 | 39.03519 | 34806 ft | 460 kts | 190° |
| 2026-04-20 21:17 | 18.65089 | 39.03164 | 34806 ft | 461 kts | 190° |
| 2026-04-20 21:17 | 18.58682 | 39.02810 | 34807 ft | 461 kts | 190° |
| 2026-04-20 21:18 | 18.52317 | 39.02458 | 34809 ft | 461 kts | 190° |
| 2026-04-20 21:18 | 18.45889 | 39.02103 | 34804 ft | 461 kts | 190° |
| 2026-04-20 21:19 | 18.39472 | 39.01749 | 34805 ft | 461 kts | 189° |
| 2026-04-20 21:20 | 18.29884 | 39.01221 | 34809 ft | 461 kts | 189° |
| 2026-04-20 21:20 | 18.23517 | 39.00870 | 34807 ft | 460 kts | 189° |
| 2026-04-20 21:21 | 18.17099 | 39.00517 | 34804 ft | 460 kts | 189° |
| 2026-04-20 21:21 | 18.10695 | 39.00241 | 34805 ft | 461 kts | 188° |
| 2026-04-20 21:22 | 18.04318 | 39.00028 | 34805 ft | 460 kts | 188° |
| 2026-04-20 21:22 | 17.97901 | 38.99808 | 34805 ft | 460 kts | 188° |
| 2026-04-20 21:23 | 17.91505 | 38.99578 | 34809 ft | 459 kts | 188° |
| 2026-04-20 21:23 | 17.85159 | 38.99346 | 34810 ft | 459 kts | 188° |
| 2026-04-20 21:24 | 17.78773 | 38.99112 | 34802 ft | 458 kts | 188° |
| 2026-04-20 21:24 | 17.72386 | 38.98879 | 34803 ft | 458 kts | 188° |
| 2026-04-20 21:25 | 17.66046 | 38.98648 | 34802 ft | 458 kts | 188° |
| 2026-04-20 21:25 | 17.59673 | 38.98417 | 34805 ft | 458 kts | 188° |
| 2026-04-20 21:26 | 17.53326 | 38.98186 | 34804 ft | 458 kts | 188° |
| 2026-04-20 21:26 | 17.46939 | 38.97980 | 34801 ft | 461 kts | 184° |
| 2026-04-20 21:26 | 17.43732 | 38.98460 | 34802 ft | 471 kts | 169° |
| 2026-04-20 21:27 | 17.40641 | 38.99715 | 34807 ft | 481 kts | 156° |
| 2026-04-20 21:27 | 17.37852 | 39.01708 | 34813 ft | 488 kts | 145° |
| 2026-04-20 21:27 | 17.35263 | 39.03945 | 34809 ft | 489 kts | 144° |
| 2026-04-20 21:28 | 17.30062 | 39.08582 | 34799 ft | 490 kts | 143° |
| 2026-04-20 21:28 | 17.24844 | 39.13187 | 34790 ft | 491 kts | 144° |
| 2026-04-20 21:29 | 17.19720 | 39.17631 | 34799 ft | 491 kts | 144° |
| 2026-04-20 21:29 | 17.14549 | 39.22082 | 34792 ft | 491 kts | 144° |
| 2026-04-20 21:30 | 17.09249 | 39.26635 | 34790 ft | 491 kts | 144° |
| 2026-04-20 21:30 | 17.03992 | 39.31152 | 34794 ft | 491 kts | 144° |
| 2026-04-20 21:31 | 16.98710 | 39.35689 | 34794 ft | 491 kts | 144° |
| 2026-04-20 21:31 | 16.93432 | 39.40221 | 34788 ft | 490 kts | 144° |
| 2026-04-20 21:32 | 16.88193 | 39.44716 | 34794 ft | 490 kts | 144° |
| 2026-04-20 21:32 | 16.82927 | 39.49230 | 34790 ft | 489 kts | 144° |
| 2026-04-20 21:33 | 16.78550 | 39.52979 | 34783 ft | 489 kts | 144° |
| 2026-04-20 21:33 | 16.73298 | 39.57475 | 34785 ft | 488 kts | 144° |
| 2026-04-20 21:34 | 16.68063 | 39.61953 | 34787 ft | 488 kts | 144° |
| 2026-04-20 21:34 | 16.62810 | 39.66443 | 34785 ft | 487 kts | 144° |
| 2026-04-20 21:35 | 16.57566 | 39.70922 | 34782 ft | 487 kts | 144° |
| 2026-04-20 21:35 | 16.52344 | 39.75379 | 34781 ft | 487 kts | 144° |
| 2026-04-20 21:36 | 16.47100 | 39.79852 | 34778 ft | 486 kts | 144° |
| 2026-04-20 21:36 | 16.41850 | 39.84327 | 34784 ft | 486 kts | 144° |
| 2026-04-20 21:37 | 16.36637 | 39.88767 | 34774 ft | 486 kts | 144° |
| 2026-04-20 21:37 | 16.31390 | 39.93232 | 34778 ft | 486 kts | 144° |
| 2026-04-20 21:38 | 16.26145 | 39.97693 | 34774 ft | 487 kts | 144° |
| 2026-04-20 21:38 | 16.20916 | 40.02137 | 34769 ft | 487 kts | 144° |
| 2026-04-20 21:39 | 16.15669 | 40.06593 | 34774 ft | 487 kts | 143° |
| 2026-04-20 21:39 | 16.10402 | 40.11062 | 34768 ft | 487 kts | 143° |
| 2026-04-20 21:40 | 16.05138 | 40.15527 | 34769 ft | 487 kts | 143° |
| 2026-04-20 21:40 | 15.99901 | 40.19965 | 34761 ft | 488 kts | 143° |
| 2026-04-20 21:41 | 15.94628 | 40.24431 | 34766 ft | 488 kts | 143° |
| 2026-04-20 21:41 | 15.89390 | 40.28864 | 34765 ft | 487 kts | 143° |
| 2026-04-20 21:42 | 15.84137 | 40.33307 | 34768 ft | 487 kts | 143° |
| 2026-04-20 21:42 | 15.78880 | 40.37749 | 34759 ft | 486 kts | 143° |
| 2026-04-20 21:43 | 15.73655 | 40.42162 | 34755 ft | 486 kts | 143° |
| 2026-04-20 21:43 | 15.68397 | 40.46600 | 34753 ft | 485 kts | 143° |
| 2026-04-20 21:44 | 15.63188 | 40.50993 | 34751 ft | 484 kts | 143° |
| 2026-04-20 21:44 | 15.57951 | 40.55407 | 34744 ft | 484 kts | 143° |
| 2026-04-20 21:45 | 15.52708 | 40.59822 | 34743 ft | 484 kts | 143° |
| 2026-04-20 21:45 | 15.47513 | 40.64195 | 34738 ft | 484 kts | 143° |
| 2026-04-20 21:46 | 15.42271 | 40.68604 | 34740 ft | 484 kts | 143° |
| 2026-04-20 21:46 | 15.37069 | 40.72977 | 34735 ft | 484 kts | 143° |
| 2026-04-20 21:47 | 15.31834 | 40.77374 | 34737 ft | 484 kts | 143° |
| 2026-04-20 21:47 | 15.26595 | 40.81772 | 34734 ft | 484 kts | 143° |
| 2026-04-20 21:48 | 15.21353 | 40.86170 | 34735 ft | 485 kts | 143° |
| 2026-04-20 21:48 | 15.16130 | 40.90550 | 34736 ft | 485 kts | 143° |
| 2026-04-20 21:49 | 15.10865 | 40.94961 | 34734 ft | 486 kts | 143° |
| 2026-04-20 21:49 | 15.05630 | 40.99346 | 34734 ft | 486 kts | 143° |
| 2026-04-20 21:50 | 15.00356 | 41.03757 | 34729 ft | 487 kts | 143° |
| 2026-04-20 21:50 | 14.95106 | 41.08138 | 34731 ft | 487 kts | 143° |
| 2026-04-20 21:51 | 14.89827 | 41.12540 | 34728 ft | 487 kts | 143° |
| 2026-04-20 21:51 | 14.84550 | 41.16941 | 34737 ft | 487 kts | 143° |
| 2026-04-20 21:52 | 14.79265 | 41.21345 | 34736 ft | 487 kts | 143° |
| 2026-04-20 21:52 | 14.73991 | 41.25738 | 34736 ft | 487 kts | 143° |
| 2026-04-20 21:53 | 14.68747 | 41.30103 | 34740 ft | 487 kts | 143° |
| 2026-04-20 21:53 | 14.63472 | 41.34491 | 34744 ft | 487 kts | 143° |
| 2026-04-20 21:54 | 14.58186 | 41.38885 | 34744 ft | 486 kts | 143° |
| 2026-04-20 21:54 | 14.52909 | 41.43269 | 34751 ft | 486 kts | 143° |
| 2026-04-20 21:55 | 14.47635 | 41.47648 | 34746 ft | 486 kts | 143° |
| 2026-04-20 21:55 | 14.42387 | 41.52003 | 34749 ft | 486 kts | 143° |
| 2026-04-20 21:56 | 14.37111 | 41.56377 | 34749 ft | 486 kts | 143° |
| 2026-04-20 21:56 | 14.31835 | 41.60749 | 34746 ft | 486 kts | 143° |
| 2026-04-20 21:57 | 14.26582 | 41.65100 | 34749 ft | 486 kts | 143° |
| 2026-04-20 21:57 | 14.21302 | 41.69470 | 34754 ft | 486 kts | 143° |
| 2026-04-20 21:58 | 14.16053 | 41.73812 | 34756 ft | 486 kts | 143° |
| 2026-04-20 21:58 | 14.10770 | 41.78179 | 34758 ft | 486 kts | 143° |
| 2026-04-20 21:59 | 14.05478 | 41.82551 | 34759 ft | 486 kts | 143° |
| 2026-04-20 21:59 | 14.00228 | 41.86886 | 34760 ft | 486 kts | 143° |
| 2026-04-20 22:00 | 13.94944 | 41.91246 | 34765 ft | 486 kts | 143° |
| 2026-04-20 22:00 | 13.89657 | 41.95607 | 34772 ft | 486 kts | 143° |
| 2026-04-20 22:01 | 13.84365 | 41.99969 | 34773 ft | 486 kts | 143° |
| 2026-04-20 22:01 | 13.79072 | 42.04328 | 34783 ft | 487 kts | 143° |
| 2026-04-20 22:02 | 13.73810 | 42.08661 | 34783 ft | 487 kts | 143° |
| 2026-04-20 22:02 | 13.68519 | 42.13015 | 34783 ft | 487 kts | 142° |
| 2026-04-20 22:03 | 13.63218 | 42.17367 | 34787 ft | 487 kts | 143° |
| 2026-04-20 22:03 | 13.57943 | 42.21664 | 34785 ft | 486 kts | 143° |
| 2026-04-20 22:04 | 13.52634 | 42.25981 | 34788 ft | 486 kts | 143° |
| 2026-04-20 22:04 | 13.47318 | 42.30306 | 34781 ft | 486 kts | 143° |
| 2026-04-20 22:05 | 13.42009 | 42.34627 | 34631 ft | 489 kts | 143° |
| 2026-04-20 22:05 | 13.39360 | 42.36780 | 34137 ft | 491 kts | 143° |
| 2026-04-20 22:05 | 13.36686 | 42.38955 | 33697 ft | 486 kts | 143° |
| 2026-04-20 22:05 | 13.34033 | 42.41113 | 33192 ft | 483 kts | 143° |
| 2026-04-20 22:06 | 13.31410 | 42.43245 | 32731 ft | 479 kts | 143° |
| 2026-04-20 22:06 | 13.28804 | 42.45363 | 32288 ft | 474 kts | 143° |
| 2026-04-20 22:06 | 13.26251 | 42.47437 | 31850 ft | 470 kts | 143° |
| 2026-04-20 22:06 | 13.23691 | 42.49515 | 31423 ft | 467 kts | 143° |
| 2026-04-20 22:07 | 13.21156 | 42.51574 | 30996 ft | 463 kts | 143° |
| 2026-04-20 22:07 | 13.18632 | 42.53622 | 30576 ft | 460 kts | 143° |
| 2026-04-20 22:07 | 13.16122 | 42.55659 | 30151 ft | 456 kts | 143° |
| 2026-04-20 22:07 | 13.13667 | 42.57651 | 29708 ft | 454 kts | 143° |
| 2026-04-20 22:08 | 13.11193 | 42.59657 | 29228 ft | 450 kts | 143° |
| 2026-04-20 22:08 | 13.08741 | 42.61628 | 28761 ft | 445 kts | 146° |
| 2026-04-20 22:08 | 13.06131 | 42.63302 | 28332 ft | 438 kts | 154° |
| 2026-04-20 22:08 | 13.03389 | 42.64501 | 28077 ft | 428 kts | 163° |
| 2026-04-20 22:09 | 13.00577 | 42.65427 | 27777 ft | 421 kts | 164° |
| 2026-04-20 22:09 | 12.97796 | 42.66308 | 27381 ft | 417 kts | 164° |
| 2026-04-20 22:09 | 12.95026 | 42.67183 | 26969 ft | 414 kts | 164° |
| 2026-04-20 22:09 | 12.92289 | 42.68058 | 26558 ft | 411 kts | 163° |
| 2026-04-20 22:10 | 12.89562 | 42.68939 | 26152 ft | 409 kts | 163° |
| 2026-04-20 22:10 | 12.86851 | 42.69824 | 25738 ft | 406 kts | 163° |
| 2026-04-20 22:10 | 12.84192 | 42.70695 | 25321 ft | 405 kts | 162° |
| 2026-04-20 22:10 | 12.81511 | 42.71575 | 24918 ft | 403 kts | 162° |
| 2026-04-20 22:11 | 12.78841 | 42.72453 | 24488 ft | 402 kts | 162° |
| 2026-04-20 22:11 | 12.76183 | 42.73326 | 24074 ft | 401 kts | 162° |
| 2026-04-20 22:11 | 12.73530 | 42.74197 | 23664 ft | 400 kts | 161° |
| 2026-04-20 22:11 | 12.70886 | 42.75065 | 23222 ft | 399 kts | 161° |
| 2026-04-20 22:12 | 12.68248 | 42.75931 | 22766 ft | 397 kts | 161° |
| 2026-04-20 22:12 | 12.65625 | 42.76792 | 22347 ft | 394 kts | 161° |
| 2026-04-20 22:12 | 12.63019 | 42.77646 | 21946 ft | 391 kts | 161° |
| 2026-04-20 22:12 | 12.60466 | 42.78483 | 21544 ft | 388 kts | 161° |
| 2026-04-20 22:13 | 12.57975 | 42.79489 | 21135 ft | 384 kts | 150° |
| 2026-04-20 22:13 | 12.55671 | 42.80835 | 20770 ft | 379 kts | 147° |
| 2026-04-20 22:13 | 12.53426 | 42.82244 | 20374 ft | 377 kts | 147° |
| 2026-04-20 22:13 | 12.51205 | 42.83657 | 19987 ft | 375 kts | 147° |
| 2026-04-20 22:14 | 12.48989 | 42.85056 | 19609 ft | 372 kts | 147° |
| 2026-04-20 22:14 | 12.46781 | 42.86436 | 19214 ft | 370 kts | 147° |
| 2026-04-20 22:14 | 12.44576 | 42.87799 | 18827 ft | 369 kts | 147° |
| 2026-04-20 22:14 | 12.42377 | 42.89149 | 18437 ft | 367 kts | 148° |
| 2026-04-20 22:15 | 12.40214 | 42.90472 | 18033 ft | 366 kts | 148° |
| 2026-04-20 22:15 | 12.38033 | 42.91804 | 17609 ft | 364 kts | 148° |
| 2026-04-20 22:15 | 12.35861 | 42.93128 | 17198 ft | 361 kts | 148° |
| 2026-04-20 22:15 | 12.33709 | 42.94439 | 16810 ft | 359 kts | 148° |
| 2026-04-20 22:16 | 12.31562 | 42.95746 | 16439 ft | 356 kts | 148° |
| 2026-04-20 22:16 | 12.29438 | 42.97040 | 16064 ft | 354 kts | 148° |
| 2026-04-20 22:16 | 12.27325 | 42.98327 | 15689 ft | 353 kts | 148° |
| 2026-04-20 22:16 | 12.25222 | 42.99607 | 15317 ft | 351 kts | 148° |
| 2026-04-20 22:17 | 12.23123 | 43.00884 | 14942 ft | 350 kts | 148° |
| 2026-04-20 22:17 | 12.21059 | 43.02139 | 14569 ft | 348 kts | 148° |
| 2026-04-20 22:17 | 12.18974 | 43.03407 | 14177 ft | 348 kts | 148° |
| 2026-04-20 22:17 | 12.16891 | 43.04675 | 13802 ft | 347 kts | 148° |
| 2026-04-20 22:18 | 12.14809 | 43.05941 | 13400 ft | 347 kts | 149° |
| 2026-04-20 22:18 | 12.12733 | 43.07204 | 12978 ft | 346 kts | 149° |
| 2026-04-20 22:18 | 12.10690 | 43.08446 | 12602 ft | 344 kts | 149° |
| 2026-04-20 22:18 | 12.08636 | 43.09695 | 12231 ft | 342 kts | 149° |
| 2026-04-20 22:19 | 12.06593 | 43.10937 | 11872 ft | 340 kts | 149° |
| 2026-04-20 22:19 | 12.04565 | 43.12169 | 11511 ft | 337 kts | 149° |
| 2026-04-20 22:19 | 12.03233 | 43.12979 | 11284 ft | 336 kts | 149° |
| 2026-04-20 22:19 | 12.01231 | 43.14194 | 11027 ft | 330 kts | 149° |
| 2026-04-20 22:20 | 11.99206 | 43.15210 | 10868 ft | 321 kts | 165° |
| 2026-04-20 22:20 | 11.97028 | 43.15384 | 10716 ft | 311 kts | 188° |
| 2026-04-20 22:20 | 11.94977 | 43.14771 | 10466 ft | 306 kts | 207° |
| 2026-04-20 22:20 | 11.93225 | 43.13550 | 10183 ft | 304 kts | 218° |
| 2026-04-20 22:21 | 11.91589 | 43.12199 | 10020 ft | 297 kts | 219° |
| 2026-04-20 22:21 | 11.90026 | 43.10897 | 9891 ft | 290 kts | 218° |
| 2026-04-20 22:21 | 11.88462 | 43.09610 | 9764 ft | 283 kts | 218° |
| 2026-04-20 22:21 | 11.86901 | 43.08337 | 9321 ft | 287 kts | 217° |
| 2026-04-20 22:22 | 11.84828 | 43.06652 | 8913 ft | 286 kts | 217° |
| 2026-04-20 22:22 | 11.83795 | 43.05814 | 8729 ft | 286 kts | 217° |
| 2026-04-20 22:22 | 11.82241 | 43.04554 | 8492 ft | 284 kts | 217° |
| 2026-04-20 22:22 | 11.80691 | 43.03297 | 8205 ft | 285 kts | 216° |
| 2026-04-20 22:23 | 11.79137 | 43.02038 | 7907 ft | 284 kts | 216° |
| 2026-04-20 22:23 | 11.77608 | 43.00798 | 7626 ft | 282 kts | 216° |
| 2026-04-20 22:23 | 11.76072 | 42.99553 | 7332 ft | 281 kts | 216° |
| 2026-04-20 22:23 | 11.74539 | 42.98311 | 7049 ft | 280 kts | 216° |
| 2026-04-20 22:24 | 11.73007 | 42.97069 | 6758 ft | 279 kts | 215° |
| 2026-04-20 22:24 | 11.71491 | 42.95840 | 6485 ft | 278 kts | 215° |
| 2026-04-20 22:24 | 11.69977 | 42.94613 | 6204 ft | 277 kts | 215° |
| 2026-04-20 22:24 | 11.68484 | 42.93403 | 6057 ft | 270 kts | 214° |
| 2026-04-20 22:25 | 11.67030 | 42.92225 | 5921 ft | 263 kts | 214° |
| 2026-04-20 22:25 | 11.65634 | 42.91094 | 5806 ft | 255 kts | 214° |
| 2026-04-20 22:25 | 11.64130 | 42.90250 | 5628 ft | 243 kts | 190° |
| 2026-04-20 22:25 | 11.62480 | 42.90055 | 5398 ft | 237 kts | 178° |
| 2026-04-20 22:26 | 11.60830 | 42.90040 | 5141 ft | 236 kts | 176° |
| 2026-04-20 22:26 | 11.59192 | 42.90037 | 4896 ft | 235 kts | 176° |
| 2026-04-20 22:26 | 11.57577 | 42.90092 | 4667 ft | 227 kts | 163° |
| 2026-04-20 22:27 | 11.55365 | 42.91984 | 4145 ft | 207 kts | 114° |
| 2026-04-20 22:27 | 11.55067 | 42.93393 | 3915 ft | 202 kts | 92° |
| 2026-04-20 22:27 | 11.55053 | 42.94783 | 3762 ft | 198 kts | 93° |
| 2026-04-20 22:27 | 11.55024 | 42.96198 | 3512 ft | 199 kts | 93° |
| 2026-04-20 22:28 | 11.54996 | 42.97605 | 3277 ft | 198 kts | 92° |
| 2026-04-20 22:28 | 11.54977 | 42.99010 | 2994 ft | 195 kts | 92° |
| 2026-04-20 22:28 | 11.54956 | 43.00392 | 2708 ft | 194 kts | 92° |
| 2026-04-20 22:28 | 11.54937 | 43.01742 | 2461 ft | 185 kts | 92° |
| 2026-04-20 22:29 | 11.54918 | 43.03014 | 2230 ft | 176 kts | 92° |
| 2026-04-20 22:29 | 11.54900 | 43.04235 | 1976 ft | 168 kts | 93° |
| 2026-04-20 22:29 | 11.54883 | 43.05403 | 1813 ft | 164 kts | 92° |
| 2026-04-20 22:29 | 11.54867 | 43.06552 | 1552 ft | 159 kts | 92° |
| 2026-04-20 22:30 | 11.54851 | 43.07674 | 1353 ft | 159 kts | 93° |
| 2026-04-20 22:30 | 11.54836 | 43.08787 | 1155 ft | 153 kts | 92° |
| 2026-04-20 22:30 | 11.54827 | 43.09878 | 957 ft | 153 kts | 94° |
| 2026-04-20 22:30 | 11.54789 | 43.10968 | 794 ft | 154 kts | 92° |
| 2026-04-20 22:31 | 11.54781 | 43.12057 | 584 ft | 157 kts | 91° |
| 2026-04-20 22:31 | 11.54771 | 43.13171 | 365 ft | 156 kts | 92° |
| 2026-04-20 22:31 | 11.54759 | 43.14272 | 133 ft | 153 kts | 92° |
| 2026-04-20 22:31 | 11.54741 | 43.15315 | 51 ft | 135 kts | 91° |
| 2026-04-20 22:32 | 11.54734 | 43.16051 | 41 ft | 72 kts | 90° |
| 2026-04-20 22:32 | 11.54730 | 43.16342 | 39 ft | 18 kts | 91° |
| 2026-04-20 22:32 | 11.54759 | 43.16406 | 38 ft | 10 kts | 26° |
| 2026-04-20 22:32 | 11.54829 | 43.16414 | 38 ft | 10 kts | 358° |
| 2026-04-20 22:33 | 11.54898 | 43.16413 | 39 ft | 10 kts | 1° |
| 2026-04-20 22:33 | 11.54966 | 43.16412 | 39 ft | 10 kts | 352° |
| 2026-04-20 22:33 | 11.54990 | 43.16352 | 40 ft | 10 kts | 270° |
| 2026-04-20 22:33 | 11.54990 | 43.16264 | 40 ft | 16 kts | 270° |
| 2026-04-20 22:34 | 11.54991 | 43.16133 | 42 ft | 20 kts | 271° |
| 2026-04-20 22:34 | 11.54994 | 43.15981 | 43 ft | 22 kts | 271° |
| 2026-04-20 22:34 | 11.54997 | 43.15828 | 45 ft | 21 kts | 270° |
| 2026-04-20 22:34 | 11.54998 | 43.15681 | 46 ft | 21 kts | 270° |
| 2026-04-20 22:35 | 11.54999 | 43.15537 | 47 ft | 20 kts | 271° |
| 2026-04-20 22:35 | 11.55002 | 43.15397 | 45 ft | 19 kts | 271° |
| 2026-04-20 22:35 | 11.55004 | 43.15262 | 50 ft | 19 kts | 270° |
| 2026-04-20 22:35 | 11.55006 | 43.15131 | 51 ft | 18 kts | 270° |
| 2026-04-20 22:36 | 11.55007 | 43.15006 | 52 ft | 13 kts | 270° |
| 2026-04-20 22:36 | 11.55020 | 43.14951 | 51 ft | 9 kts | 313° |
| 2026-04-20 22:36 | 11.55091 | 43.14938 | 53 ft | 12 kts | 359° |
| 2026-04-20 22:36 | 11.55137 | 43.14938 | 53 ft | 0 kts | 359° |
| 2026-04-20 22:37 | 11.55164 | 43.14938 | 49 ft | 0 kts | 360° |